sensor_id;sensor_type;location;lat;lon;timestamp;pressure;altitude;pressure_sealevel;temperature;humidity
46023;BME280;31756;47.936;16.224;2023-02-28T00:01:12;99611.25;;;0.33;100.00
46023;BME280;31756;47.936;16.224;2023-02-28T00:03:38;99606.03;;;0.28;100.00
46023;BME280;31756;47.936;16.224;2023-02-28T00:06:04;99608.38;;;0.24;100.00
46023;BME280;31756;47.936;16.224;2023-02-28T00:08:30;99599.09;;;0.23;100.00
46023;BME280;31756;47.936;16.224;2023-02-28T00:10:56;99605.59;;;0.18;100.00
46023;BME280;31756;47.936;16.224;2023-02-28T00:13:21;99606.81;;;0.05;100.00
46023;BME280;31756;47.936;16.224;2023-02-28T00:15:47;99611.66;;;0.00;100.00
46023;BME280;31756;47.936;16.224;2023-02-28T00:18:12;99610.78;;;-0.02;100.00
46023;BME280;31756;47.936;16.224;2023-02-28T00:20:38;99609.84;;;-0.04;100.00
46023;BME280;31756;47.936;16.224;2023-02-28T00:23:04;99616.38;;;-0.09;100.00
46023;BME280;31756;47.936;16.224;2023-02-28T00:25:30;99615.44;;;-0.11;100.00
46023;BME280;31756;47.936;16.224;2023-02-28T00:27:55;99617.22;;;-0.08;100.00
46023;BME280;31756;47.936;16.224;2023-02-28T00:30:21;99606.53;;;-0.03;100.00
46023;BME280;31756;47.936;16.224;2023-02-28T00:32:47;99614.09;;;-0.03;100.00
46023;BME280;31756;47.936;16.224;2023-02-28T00:35:13;99611.63;;;-0.01;100.00
46023;BME280;31756;47.936;16.224;2023-02-28T00:37:40;99609.03;;;-0.03;100.00
46023;BME280;31756;47.936;16.224;2023-02-28T00:40:06;99614.94;;;-0.02;100.00
46023;BME280;31756;47.936;16.224;2023-02-28T00:42:32;99613.22;;;-0.03;100.00
46023;BME280;31756;47.936;16.224;2023-02-28T00:44:58;99613.28;;;-0.02;100.00
46023;BME280;31756;47.936;16.224;2023-02-28T00:47:23;99609.16;;;0.00;100.00
46023;BME280;31756;47.936;16.224;2023-02-28T00:49:49;99609.91;;;-0.02;100.00
46023;BME280;31756;47.936;16.224;2023-02-28T00:52:14;99606.59;;;-0.01;100.00
46023;BME280;31756;47.936;16.224;2023-02-28T00:54:40;99606.53;;;-0.03;100.00
46023;BME280;31756;47.936;16.224;2023-02-28T00:57:06;99612.34;;;-0.04;100.00
46023;BME280;31756;47.936;16.224;2023-02-28T00:59:31;99611.56;;;-0.03;100.00
46023;BME280;31756;47.936;16.224;2023-02-28T01:01:57;99613.19;;;-0.05;100.00
46023;BME280;31756;47.936;16.224;2023-02-28T01:04:23;99618.34;;;-0.02;100.00
46023;BME280;31756;47.936;16.224;2023-02-28T01:06:48;99614.94;;;-0.02;100.00
46023;BME280;31756;47.936;16.224;2023-02-28T01:09:14;99610.69;;;-0.03;100.00
46023;BME280;31756;47.936;16.224;2023-02-28T01:11:41;99622.31;;;-0.07;100.00
46023;BME280;31756;47.936;16.224;2023-02-28T01:14:12;99627.38;;;-0.07;100.00
46023;BME280;31756;47.936;16.224;2023-02-28T01:16:37;99625.53;;;-0.11;100.00
46023;BME280;31756;47.936;16.224;2023-02-28T01:19:03;99622.75;;;-0.17;100.00
46023;BME280;31756;47.936;16.224;2023-02-28T01:21:28;99632.91;;;-0.15;100.00
46023;BME280;31756;47.936;16.224;2023-02-28T01:23:56;99627.78;;;-0.17;100.00
46023;BME280;31756;47.936;16.224;2023-02-28T01:26:22;99626.47;;;-0.29;100.00
46023;BME280;31756;47.936;16.224;2023-02-28T01:28:48;99630.66;;;-0.30;100.00
46023;BME280;31756;47.936;16.224;2023-02-28T01:31:14;99637.09;;;-0.36;100.00
46023;BME280;31756;47.936;16.224;2023-02-28T01:33:40;99642.75;;;-0.42;100.00
46023;BME280;31756;47.936;16.224;2023-02-28T01:36:07;99639.13;;;-0.49;100.00
46023;BME280;31756;47.936;16.224;2023-02-28T01:38:34;99636.41;;;-0.53;100.00
46023;BME280;31756;47.936;16.224;2023-02-28T01:41:00;99642.13;;;-0.57;100.00
46023;BME280;31756;47.936;16.224;2023-02-28T01:43:27;99631.88;;;-0.62;100.00
46023;BME280;31756;47.936;16.224;2023-02-28T01:45:54;99639.22;;;-0.66;100.00
46023;BME280;31756;47.936;16.224;2023-02-28T01:48:21;99641.75;;;-0.66;100.00
46023;BME280;31756;47.936;16.224;2023-02-28T01:50:49;99634.78;;;-0.72;100.00
46023;BME280;31756;47.936;16.224;2023-02-28T01:53:16;99629.56;;;-0.76;100.00
46023;BME280;31756;47.936;16.224;2023-02-28T01:55:44;99630.50;;;-0.74;100.00
46023;BME280;31756;47.936;16.224;2023-02-28T01:58:12;99630.50;;;-0.74;100.00
46023;BME280;31756;47.936;16.224;2023-02-28T02:00:38;99630.63;;;-0.71;100.00
46023;BME280;31756;47.936;16.224;2023-02-28T02:03:06;99626.25;;;-0.75;100.00
46023;BME280;31756;47.936;16.224;2023-02-28T02:05:34;99628.72;;;-0.77;100.00
46023;BME280;31756;47.936;16.224;2023-02-28T02:08:03;99626.06;;;-0.80;100.00
46023;BME280;31756;47.936;16.224;2023-02-28T02:10:40;99624.41;;;-0.79;100.00
46023;BME280;31756;47.936;16.224;2023-02-28T02:15:34;99623.50;;;-0.81;100.00
46023;BME280;31756;47.936;16.224;2023-02-28T02:18:06;99625.75;;;-0.87;100.00
46023;BME280;31756;47.936;16.224;2023-02-28T02:25:53;99626.88;;;-1.00;100.00
46023;BME280;31756;47.936;16.224;2023-02-28T02:35:56;99634.38;;;-1.21;100.00
46023;BME280;31756;47.936;16.224;2023-02-28T02:41:00;99629.34;;;-1.40;100.00
46023;BME280;31756;47.936;16.224;2023-02-28T02:43:34;99631.47;;;-1.49;100.00
46023;BME280;31756;47.936;16.224;2023-02-28T02:46:04;99622.50;;;-1.62;100.00
46023;BME280;31756;47.936;16.224;2023-02-28T02:48:32;99617.00;;;-1.72;100.00
46023;BME280;31756;47.936;16.224;2023-02-28T02:51:03;99614.91;;;-1.81;100.00
46023;BME280;31756;47.936;16.224;2023-02-28T02:53:41;99611.28;;;-1.88;100.00
46023;BME280;31756;47.936;16.224;2023-02-28T02:56:08;99611.97;;;-1.90;100.00
46023;BME280;31756;47.936;16.224;2023-02-28T02:58:36;99612.81;;;-1.91;100.00
46023;BME280;31756;47.936;16.224;2023-02-28T03:01:07;99617.63;;;-1.96;100.00
46023;BME280;31756;47.936;16.224;2023-02-28T03:03:35;99615.59;;;-2.03;100.00
46023;BME280;31756;47.936;16.224;2023-02-28T03:06:01;99624.41;;;-2.11;100.00
46023;BME280;31756;47.936;16.224;2023-02-28T03:08:28;99621.63;;;-2.17;100.00
46023;BME280;31756;47.936;16.224;2023-02-28T03:10:56;99618.97;;;-2.20;100.00
46023;BME280;31756;47.936;16.224;2023-02-28T03:18:44;99624.69;;;-2.40;100.00
46023;BME280;31756;47.936;16.224;2023-02-28T03:24:06;99624.84;;;-2.55;100.00
46023;BME280;31756;47.936;16.224;2023-02-28T03:26:34;99620.53;;;-2.57;100.00
46023;BME280;31756;47.936;16.224;2023-02-28T03:29:07;99627.03;;;-2.61;100.00
46023;BME280;31756;47.936;16.224;2023-02-28T03:31:39;99630.97;;;-2.66;100.00
46023;BME280;31756;47.936;16.224;2023-02-28T03:34:15;99625.25;;;-2.63;100.00
46023;BME280;31756;47.936;16.224;2023-02-28T03:36:46;99625.41;;;-2.60;100.00
46023;BME280;31756;47.936;16.224;2023-02-28T03:39:17;99626.41;;;-2.57;100.00
46023;BME280;31756;47.936;16.224;2023-02-28T03:41:49;99622.25;;;-2.56;100.00
46023;BME280;31756;47.936;16.224;2023-02-28T03:44:21;99628.19;;;-2.54;100.00
46023;BME280;31756;47.936;16.224;2023-02-28T03:46:51;99619.09;;;-2.52;100.00
46023;BME280;31756;47.936;16.224;2023-02-28T03:49:32;99627.41;;;-2.53;100.00
46023;BME280;31756;47.936;16.224;2023-02-28T03:52:02;99623.81;;;-2.58;100.00
46023;BME280;31756;47.936;16.224;2023-02-28T03:54:31;99626.41;;;-2.57;100.00
46023;BME280;31756;47.936;16.224;2023-02-28T03:56:59;99631.19;;;-2.61;100.00
46023;BME280;31756;47.936;16.224;2023-02-28T03:59:36;99628.41;;;-2.67;100.00
46023;BME280;31756;47.936;16.224;2023-02-28T04:02:02;99633.34;;;-2.69;100.00
46023;BME280;31756;47.936;16.224;2023-02-28T04:04:27;99629.81;;;-2.72;100.00
46023;BME280;31756;47.936;16.224;2023-02-28T04:06:53;99627.31;;;-2.72;100.00
46023;BME280;31756;47.936;16.224;2023-02-28T04:09:27;99625.44;;;-2.77;100.00
46023;BME280;31756;47.936;16.224;2023-02-28T04:11:53;99631.97;;;-2.80;100.00
46023;BME280;31756;47.936;16.224;2023-02-28T04:14:20;99634.28;;;-2.83;100.00
46023;BME280;31756;47.936;16.224;2023-02-28T04:16:46;99632.00;;;-2.45;100.00
46023;BME280;31756;47.936;16.224;2023-02-28T04:19:12;99631.09;;;-2.47;100.00
46023;BME280;31756;47.936;16.224;2023-02-28T04:21:42;99635.03;;;-2.52;100.00
46023;BME280;31756;47.936;16.224;2023-02-28T04:24:09;99632.06;;;-2.61;100.00
46023;BME280;31756;47.936;16.224;2023-02-28T04:26:39;99629.19;;;-2.68;100.00
46023;BME280;31756;47.936;16.224;2023-02-28T04:29:05;99643.69;;;-2.45;100.00
46023;BME280;31756;47.936;16.224;2023-02-28T04:31:31;99644.44;;;-2.48;100.00
46023;BME280;31756;47.936;16.224;2023-02-28T04:33:56;99640.75;;;-2.54;100.00
46023;BME280;31756;47.936;16.224;2023-02-28T04:36:22;99635.84;;;-2.69;100.00
46023;BME280;31756;47.936;16.224;2023-02-28T04:38:48;99634.63;;;-2.77;100.00
46023;BME280;31756;47.936;16.224;2023-02-28T04:41:14;99636.63;;;-2.70;100.00
46023;BME280;31756;47.936;16.224;2023-02-28T04:43:40;99644.56;;;-2.79;100.00
46023;BME280;31756;47.936;16.224;2023-02-28T04:46:05;99634.91;;;-2.71;100.00
46023;BME280;31756;47.936;16.224;2023-02-28T04:48:32;99638.78;;;-2.78;100.00
46023;BME280;31756;47.936;16.224;2023-02-28T04:51:05;99646.63;;;-2.54;100.00
46023;BME280;31756;47.936;16.224;2023-02-28T04:53:31;99645.94;;;-2.51;100.00
46023;BME280;31756;47.936;16.224;2023-02-28T04:55:57;99645.75;;;-2.54;100.00
46023;BME280;31756;47.936;16.224;2023-02-28T04:58:23;99644.25;;;-2.68;100.00
46023;BME280;31756;47.936;16.224;2023-02-28T05:00:52;99642.69;;;-2.83;100.00
46023;BME280;31756;47.936;16.224;2023-02-28T05:03:18;99640.50;;;-2.93;100.00
46023;BME280;31756;47.936;16.224;2023-02-28T05:05:44;99642.56;;;-3.02;100.00
46023;BME280;31756;47.936;16.224;2023-02-28T05:08:10;99642.88;;;-3.12;100.00
46023;BME280;31756;47.936;16.224;2023-02-28T05:10:36;99642.50;;;-3.19;100.00
46023;BME280;31756;47.936;16.224;2023-02-28T05:13:01;99637.94;;;-3.27;100.00
46023;BME280;31756;47.936;16.224;2023-02-28T05:15:27;99638.09;;;-3.24;100.00
46023;BME280;31756;47.936;16.224;2023-02-28T05:17:53;99641.78;;;-3.17;100.00
46023;BME280;31756;47.936;16.224;2023-02-28T05:20:18;99638.59;;;-3.14;100.00
46023;BME280;31756;47.936;16.224;2023-02-28T05:22:44;99644.44;;;-3.14;100.00
46023;BME280;31756;47.936;16.224;2023-02-28T05:25:10;99638.59;;;-3.14;100.00
46023;BME280;31756;47.936;16.224;2023-02-28T05:27:38;99641.63;;;-3.20;100.00
46023;BME280;31756;47.936;16.224;2023-02-28T05:30:04;99634.59;;;-3.27;100.00
46023;BME280;31756;47.936;16.224;2023-02-28T05:32:31;99634.50;;;-3.29;100.00
46023;BME280;31756;47.936;16.224;2023-02-28T05:34:56;99646.16;;;-3.29;100.00
46023;BME280;31756;47.936;16.224;2023-02-28T05:37:25;99649.38;;;-3.32;100.00
46023;BME280;31756;47.936;16.224;2023-02-28T05:39:51;99647.66;;;-3.33;100.00
46023;BME280;31756;47.936;16.224;2023-02-28T05:42:16;99652.56;;;-3.34;100.00
46023;BME280;31756;47.936;16.224;2023-02-28T05:44:42;99657.59;;;-3.34;100.00
46023;BME280;31756;47.936;16.224;2023-02-28T05:47:07;99654.22;;;-3.35;100.00
46023;BME280;31756;47.936;16.224;2023-02-28T05:49:33;99651.56;;;-3.38;100.00
46023;BME280;31756;47.936;16.224;2023-02-28T05:51:58;99662.56;;;-3.36;100.00
46023;BME280;31756;47.936;16.224;2023-02-28T05:54:23;99660.72;;;-3.38;100.00
46023;BME280;31756;47.936;16.224;2023-02-28T05:56:49;99662.47;;;-3.37;100.00
46023;BME280;31756;47.936;16.224;2023-02-28T05:59:15;99666.84;;;-3.33;100.00
46023;BME280;31756;47.936;16.224;2023-02-28T06:01:44;99668.09;;;-3.25;100.00
46023;BME280;31756;47.936;16.224;2023-02-28T06:04:14;99666.94;;;-3.15;100.00
46023;BME280;31756;47.936;16.224;2023-02-28T06:06:51;99672.34;;;-3.08;100.00
46023;BME280;31756;47.936;16.224;2023-02-28T06:09:17;99675.69;;;-2.91;100.00
46023;BME280;31756;47.936;16.224;2023-02-28T06:11:43;99680.41;;;-2.81;100.00
46023;BME280;31756;47.936;16.224;2023-02-28T06:14:15;99680.16;;;-2.69;100.00
46023;BME280;31756;47.936;16.224;2023-02-28T06:16:42;99676.38;;;-2.61;100.00
46023;BME280;31756;47.936;16.224;2023-02-28T06:19:08;99684.03;;;-2.58;100.00
46023;BME280;31756;47.936;16.224;2023-02-28T06:21:33;99688.81;;;-2.47;100.00
46023;BME280;31756;47.936;16.224;2023-02-28T06:23:59;99687.59;;;-2.37;100.00
46023;BME280;31756;47.936;16.224;2023-02-28T06:26:24;99689.16;;;-2.23;100.00
46023;BME280;31756;47.936;16.224;2023-02-28T06:28:50;99687.00;;;-2.15;100.00
46023;BME280;31756;47.936;16.224;2023-02-28T06:31:16;99688.16;;;-2.09;100.00
46023;BME280;31756;47.936;16.224;2023-02-28T06:33:42;99680.41;;;-1.96;100.00
46023;BME280;31756;47.936;16.224;2023-02-28T06:36:09;99691.81;;;-1.85;100.00
46023;BME280;31756;47.936;16.224;2023-02-28T06:38:35;99688.00;;;-1.76;100.00
46023;BME280;31756;47.936;16.224;2023-02-28T06:41:00;99688.66;;;-1.63;100.00
46023;BME280;31756;47.936;16.224;2023-02-28T06:43:30;99688.00;;;-1.59;100.00
46023;BME280;31756;47.936;16.224;2023-02-28T06:45:57;99692.00;;;-1.45;100.00
46023;BME280;31756;47.936;16.224;2023-02-28T06:48:23;99695.13;;;-1.31;100.00
46023;BME280;31756;47.936;16.224;2023-02-28T06:50:49;99694.53;;;-1.25;100.00
46023;BME280;31756;47.936;16.224;2023-02-28T06:53:15;99695.50;;;-1.23;100.00
46023;BME280;31756;47.936;16.224;2023-02-28T06:55:40;99690.50;;;-1.22;100.00
46023;BME280;31756;47.936;16.224;2023-02-28T06:58:06;99699.19;;;-1.15;100.00
46023;BME280;31756;47.936;16.224;2023-02-28T07:00:41;99692.69;;;-1.10;100.00
46023;BME280;31756;47.936;16.224;2023-02-28T07:03:07;99701.84;;;-1.12;100.00
46023;BME280;31756;47.936;16.224;2023-02-28T07:05:36;99705.28;;;-1.10;100.00
46023;BME280;31756;47.936;16.224;2023-02-28T07:08:03;99698.22;;;-1.00;100.00
46023;BME280;31756;47.936;16.224;2023-02-28T07:10:29;99697.81;;;-0.89;100.00
46023;BME280;31756;47.936;16.224;2023-02-28T07:12:54;99701.53;;;-0.81;100.00
46023;BME280;31756;47.936;16.224;2023-02-28T07:15:20;99701.09;;;-0.71;100.00
46023;BME280;31756;47.936;16.224;2023-02-28T07:17:45;99699.84;;;-0.62;100.00
46023;BME280;31756;47.936;16.224;2023-02-28T07:20:11;99699.94;;;-0.39;100.00
46023;BME280;31756;47.936;16.224;2023-02-28T07:22:36;99703.84;;;-0.27;100.00
46023;BME280;31756;47.936;16.224;2023-02-28T07:25:02;99709.44;;;-0.13;100.00
46023;BME280;31756;47.936;16.224;2023-02-28T07:27:28;99704.50;;;0.11;100.00
46023;BME280;31756;47.936;16.224;2023-02-28T07:29:54;99700.22;;;0.30;100.00
46023;BME280;31756;47.936;16.224;2023-02-28T07:32:20;99691.78;;;0.51;100.00
46023;BME280;31756;47.936;16.224;2023-02-28T07:34:45;99696.41;;;0.62;100.00
46023;BME280;31756;47.936;16.224;2023-02-28T07:37:10;99697.72;;;0.53;100.00
46023;BME280;31756;47.936;16.224;2023-02-28T07:39:36;99702.31;;;0.63;100.00
46023;BME280;31756;47.936;16.224;2023-02-28T07:42:05;99702.03;;;0.77;100.00
46023;BME280;31756;47.936;16.224;2023-02-28T07:44:32;99708.16;;;0.84;100.00
46023;BME280;31756;47.936;16.224;2023-02-28T07:46:57;99702.53;;;0.91;100.00
46023;BME280;31756;47.936;16.224;2023-02-28T07:49:23;99702.94;;;1.02;100.00
46023;BME280;31756;47.936;16.224;2023-02-28T07:51:48;99707.06;;;1.00;100.00
46023;BME280;31756;47.936;16.224;2023-02-28T07:54:14;99700.94;;;0.93;100.00
46023;BME280;31756;47.936;16.224;2023-02-28T07:56:39;99705.97;;;0.93;100.00
46023;BME280;31756;47.936;16.224;2023-02-28T07:59:04;99705.81;;;0.66;100.00
46023;BME280;31756;47.936;16.224;2023-02-28T08:01:30;99709.31;;;0.70;100.00
46023;BME280;31756;47.936;16.224;2023-02-28T08:03:56;99706.84;;;0.71;100.00
46023;BME280;31756;47.936;16.224;2023-02-28T08:06:23;99713.09;;;0.81;100.00
46023;BME280;31756;47.936;16.224;2023-02-28T08:08:49;99707.31;;;0.83;100.00
46023;BME280;31756;47.936;16.224;2023-02-28T08:11:15;99716.44;;;1.04;100.00
46023;BME280;31756;47.936;16.224;2023-02-28T08:13:41;99712.75;;;1.18;100.00
46023;BME280;31756;47.936;16.224;2023-02-28T08:16:09;99716.13;;;0.95;100.00
46023;BME280;31756;47.936;16.224;2023-02-28T08:18:34;99713.34;;;1.11;100.00
46023;BME280;31756;47.936;16.224;2023-02-28T08:21:05;99713.94;;;1.27;100.00
46023;BME280;31756;47.936;16.224;2023-02-28T08:23:31;99722.25;;;1.49;100.00
46023;BME280;31756;47.936;16.224;2023-02-28T08:25:58;99720.75;;;1.54;100.00
46023;BME280;31756;47.936;16.224;2023-02-28T08:28:24;99718.22;;;1.54;100.00
46023;BME280;31756;47.936;16.224;2023-02-28T08:30:49;99717.56;;;1.59;100.00
46023;BME280;31756;47.936;16.224;2023-02-28T08:33:15;99716.59;;;1.30;100.00
46023;BME280;31756;47.936;16.224;2023-02-28T08:35:40;99720.41;;;1.45;100.00
46023;BME280;31756;47.936;16.224;2023-02-28T08:38:05;99722.78;;;1.40;100.00
46023;BME280;31756;47.936;16.224;2023-02-28T08:40:31;99721.91;;;1.38;100.00
46023;BME280;31756;47.936;16.224;2023-02-28T08:42:56;99715.13;;;1.61;100.00
46023;BME280;31756;47.936;16.224;2023-02-28T08:45:23;99722.25;;;1.72;100.00
46023;BME280;31756;47.936;16.224;2023-02-28T08:47:48;99723.44;;;1.83;100.00
46023;BME280;31756;47.936;16.224;2023-02-28T08:50:14;99717.47;;;2.07;100.00
46023;BME280;31756;47.936;16.224;2023-02-28T08:52:42;99713.53;;;2.15;100.00
46023;BME280;31756;47.936;16.224;2023-02-28T08:55:07;99710.06;;;2.40;100.00
46023;BME280;31756;47.936;16.224;2023-02-28T08:57:33;99707.03;;;2.50;100.00
46023;BME280;31756;47.936;16.224;2023-02-28T08:59:58;99703.72;;;2.52;100.00
46023;BME280;31756;47.936;16.224;2023-02-28T09:02:24;99699.97;;;3.28;100.00
46023;BME280;31756;47.936;16.224;2023-02-28T09:04:49;99716.56;;;4.13;100.00
46023;BME280;31756;47.936;16.224;2023-02-28T09:07:14;99702.09;;;4.47;100.00
46023;BME280;31756;47.936;16.224;2023-02-28T09:09:40;99713.78;;;4.78;100.00
46023;BME280;31756;47.936;16.224;2023-02-28T09:12:19;99705.91;;;4.66;100.00
46023;BME280;31756;47.936;16.224;2023-02-28T09:14:44;99700.94;;;4.70;100.00
46023;BME280;31756;47.936;16.224;2023-02-28T09:17:10;99698.69;;;5.27;100.00
46023;BME280;31756;47.936;16.224;2023-02-28T09:19:36;99703.34;;;5.04;100.00
46023;BME280;31756;47.936;16.224;2023-02-28T09:22:02;99697.94;;;5.31;98.90
46023;BME280;31756;47.936;16.224;2023-02-28T09:24:27;99702.06;;;5.25;99.90
46023;BME280;31756;47.936;16.224;2023-02-28T09:26:53;99695.91;;;5.60;98.40
46023;BME280;31756;47.936;16.224;2023-02-28T09:29:18;99701.84;;;6.06;98.18
46023;BME280;31756;47.936;16.224;2023-02-28T09:31:43;99698.47;;;6.08;91.58
46023;BME280;31756;47.936;16.224;2023-02-28T09:34:10;99699.91;;;5.92;91.86
46023;BME280;31756;47.936;16.224;2023-02-28T09:36:35;99700.78;;;5.48;92.65
46023;BME280;31756;47.936;16.224;2023-02-28T09:39:02;99698.56;;;5.66;93.98
46023;BME280;31756;47.936;16.224;2023-02-28T09:41:29;99701.75;;;6.01;96.14
46023;BME280;31756;47.936;16.224;2023-02-28T09:44:01;99707.88;;;5.64;92.68
46023;BME280;31756;47.936;16.224;2023-02-28T09:49:18;99704.63;;;6.21;94.33
46023;BME280;31756;47.936;16.224;2023-02-28T09:54:20;99702.78;;;6.12;90.19
46023;BME280;31756;47.936;16.224;2023-02-28T09:56:49;99706.00;;;5.54;90.38
46023;BME280;31756;47.936;16.224;2023-02-28T10:06:49;99714.59;;;4.77;100.00
46023;BME280;31756;47.936;16.224;2023-02-28T10:09:17;99713.34;;;4.97;99.68
46023;BME280;31756;47.936;16.224;2023-02-28T10:11:45;99710.34;;;5.16;99.08
46023;BME280;31756;47.936;16.224;2023-02-28T10:16:42;99706.81;;;5.08;97.82
46023;BME280;31756;47.936;16.224;2023-02-28T10:24:41;99706.16;;;5.18;97.16
46023;BME280;31756;47.936;16.224;2023-02-28T10:27:15;99702.91;;;5.25;97.68
46023;BME280;31756;47.936;16.224;2023-02-28T10:29:45;99708.91;;;4.87;98.77
46023;BME280;31756;47.936;16.224;2023-02-28T10:32:15;99698.75;;;4.87;98.82
46023;BME280;31756;47.936;16.224;2023-02-28T10:34:42;99697.94;;;4.50;100.00
46023;BME280;31756;47.936;16.224;2023-02-28T10:37:07;99699.94;;;4.26;100.00
46023;BME280;31756;47.936;16.224;2023-02-28T10:39:34;99701.16;;;4.06;100.00
46023;BME280;31756;47.936;16.224;2023-02-28T10:42:00;99689.78;;;4.26;100.00
46023;BME280;31756;47.936;16.224;2023-02-28T10:44:27;99691.53;;;4.66;100.00
46023;BME280;31756;47.936;16.224;2023-02-28T10:46:52;99687.66;;;4.83;100.00
46023;BME280;31756;47.936;16.224;2023-02-28T10:49:27;99691.78;;;4.78;100.00
46023;BME280;31756;47.936;16.224;2023-02-28T10:51:55;99686.56;;;4.71;100.00
46023;BME280;31756;47.936;16.224;2023-02-28T10:54:32;99687.66;;;4.44;100.00
46023;BME280;31756;47.936;16.224;2023-02-28T10:57:07;99685.28;;;4.52;100.00
46023;BME280;31756;47.936;16.224;2023-02-28T10:59:34;99687.28;;;4.65;100.00
46023;BME280;31756;47.936;16.224;2023-02-28T11:02:00;99676.06;;;4.55;100.00
46023;BME280;31756;47.936;16.224;2023-02-28T11:07:06;99678.09;;;4.72;100.00
46023;BME280;31756;47.936;16.224;2023-02-28T11:09:41;99669.03;;;4.84;100.00
46023;BME280;31756;47.936;16.224;2023-02-28T11:14:49;99662.38;;;4.89;99.95
46023;BME280;31756;47.936;16.224;2023-02-28T11:17:23;99659.63;;;4.79;98.38
46023;BME280;31756;47.936;16.224;2023-02-28T11:19:56;99667.09;;;4.73;98.02
46023;BME280;31756;47.936;16.224;2023-02-28T11:22:26;99662.94;;;4.75;97.91
46023;BME280;31756;47.936;16.224;2023-02-28T11:24:55;99660.81;;;4.96;98.64
46023;BME280;31756;47.936;16.224;2023-02-28T11:27:25;99655.97;;;5.08;100.00
46023;BME280;31756;47.936;16.224;2023-02-28T11:29:50;99651.72;;;5.07;94.64
46023;BME280;31756;47.936;16.224;2023-02-28T11:32:20;99646.44;;;4.98;94.50
46023;BME280;31756;47.936;16.224;2023-02-28T11:34:46;99650.63;;;4.94;94.99
46023;BME280;31756;47.936;16.224;2023-02-28T11:37:14;99653.34;;;5.03;95.96
46023;BME280;31756;47.936;16.224;2023-02-28T11:39:40;99645.69;;;5.02;94.26
46023;BME280;31756;47.936;16.224;2023-02-28T11:57:45;99631.13;;;5.88;82.62
46023;BME280;31756;47.936;16.224;2023-02-28T12:08:10;99629.66;;;5.52;87.02
46023;BME280;31756;47.936;16.224;2023-02-28T12:13:21;99628.00;;;5.55;88.75
46023;BME280;31756;47.936;16.224;2023-02-28T12:28:47;99615.66;;;5.77;87.57
46023;BME280;31756;47.936;16.224;2023-02-28T12:31:21;99614.19;;;5.90;86.01
46023;BME280;31756;47.936;16.224;2023-02-28T12:33:52;99609.25;;;5.97;87.79
46023;BME280;31756;47.936;16.224;2023-02-28T12:36:19;99606.84;;;6.08;83.64
46023;BME280;31756;47.936;16.224;2023-02-28T12:38:48;99608.94;;;5.81;83.48
46023;BME280;31756;47.936;16.224;2023-02-28T12:44:03;99610.94;;;5.49;88.25
46023;BME280;31756;47.936;16.224;2023-02-28T12:46:51;99604.09;;;5.45;87.90
46023;BME280;31756;47.936;16.224;2023-02-28T12:49:31;99607.59;;;5.50;87.83
46023;BME280;31756;47.936;16.224;2023-02-28T12:51:59;99602.53;;;5.51;89.50
46023;BME280;31756;47.936;16.224;2023-02-28T12:59:25;99598.34;;;6.08;84.39
46023;BME280;31756;47.936;16.224;2023-02-28T13:09:18;99582.16;;;6.04;84.57
46023;BME280;31756;47.936;16.224;2023-02-28T13:11:48;99579.25;;;6.38;84.49
46023;BME280;31756;47.936;16.224;2023-02-28T13:16:59;99578.53;;;6.49;79.24
46023;BME280;31756;47.936;16.224;2023-02-28T13:19:27;99583.06;;;6.72;77.28
46023;BME280;31756;47.936;16.224;2023-02-28T13:21:55;99578.63;;;6.56;78.61
46023;BME280;31756;47.936;16.224;2023-02-28T13:24:42;99586.19;;;6.49;76.15
46023;BME280;31756;47.936;16.224;2023-02-28T13:29:39;99581.53;;;6.20;77.55
46023;BME280;31756;47.936;16.224;2023-02-28T13:34:33;99575.66;;;6.23;78.76
46023;BME280;31756;47.936;16.224;2023-02-28T13:47:28;99567.16;;;6.22;76.96
46023;BME280;31756;47.936;16.224;2023-02-28T13:49:56;99570.53;;;6.21;76.45
46023;BME280;31756;47.936;16.224;2023-02-28T13:52:42;99574.75;;;6.21;76.82
46023;BME280;31756;47.936;16.224;2023-02-28T14:05:17;99582.75;;;7.23;81.75
46023;BME280;31756;47.936;16.224;2023-02-28T14:07:45;99574.41;;;7.40;78.15
46023;BME280;31756;47.936;16.224;2023-02-28T14:10:20;99583.44;;;7.04;76.74
46023;BME280;31756;47.936;16.224;2023-02-28T14:18:01;99572.00;;;7.55;75.11
46023;BME280;31756;47.936;16.224;2023-02-28T14:20:29;99570.16;;;7.40;70.82
46023;BME280;31756;47.936;16.224;2023-02-28T14:25:32;99574.13;;;7.11;75.26
46023;BME280;31756;47.936;16.224;2023-02-28T14:28:14;99572.28;;;6.95;74.46
46023;BME280;31756;47.936;16.224;2023-02-28T14:38:27;99575.16;;;6.51;80.33
46023;BME280;31756;47.936;16.224;2023-02-28T14:40:54;99576.41;;;6.17;78.35
46023;BME280;31756;47.936;16.224;2023-02-28T14:43:21;99573.38;;;6.46;80.23
46023;BME280;31756;47.936;16.224;2023-02-28T14:45:51;99568.94;;;6.28;79.37
46023;BME280;31756;47.936;16.224;2023-02-28T14:48:18;99574.97;;;6.37;81.07
46023;BME280;31756;47.936;16.224;2023-02-28T14:53:36;99573.69;;;6.02;82.28
46023;BME280;31756;47.936;16.224;2023-02-28T14:56:02;99566.69;;;5.89;83.32
46023;BME280;31756;47.936;16.224;2023-02-28T14:58:29;99576.78;;;5.86;85.65
46023;BME280;31756;47.936;16.224;2023-02-28T15:00:55;99566.19;;;5.59;85.20
46023;BME280;31756;47.936;16.224;2023-02-28T15:03:39;99569.03;;;5.27;86.16
46023;BME280;31756;47.936;16.224;2023-02-28T15:06:11;99577.13;;;5.05;88.08
46023;BME280;31756;47.936;16.224;2023-02-28T15:08:37;99575.97;;;4.88;88.15
46023;BME280;31756;47.936;16.224;2023-02-28T15:11:07;99580.03;;;4.78;89.08
46023;BME280;31756;47.936;16.224;2023-02-28T15:13:40;99578.97;;;4.69;88.88
46023;BME280;31756;47.936;16.224;2023-02-28T15:16:11;99575.31;;;4.54;89.34
46023;BME280;31756;47.936;16.224;2023-02-28T15:21:07;99579.25;;;4.40;93.87
46023;BME280;31756;47.936;16.224;2023-02-28T15:23:36;99572.28;;;4.30;95.23
46023;BME280;31756;47.936;16.224;2023-02-28T15:26:02;99577.22;;;4.24;96.02